Time;durP1;ratioP1;P1;durP2;ratioP2;P2;SDS_P1;SDS_P2;PMS_P1;PMS_P2;Temp;Humidity;BMP_temperature;BMP_pressure;BME280_temperature;BME280_humidity;BME280_pressure;Samples;Min_cycle;Max_cycle;Signal;HPM_P1;HPM_P2
2021/08/22 00:01:17;;;;;;;;;;;16.10;99.90;;;;;;5075199;28;19981;-83
2021/08/22 00:03:44;;;;;;;;;;;16.10;99.90;;;;;;5075163;28;19924;-83
2021/08/22 00:06:11;;;;;;;;;;;16.10;99.90;;;;;;5075192;28;19936;-83
2021/08/22 00:08:38;;;;;;;;;;;16.10;99.90;;;;;;5075075;28;19936;-82
2021/08/22 00:11:06;;;;;;;;;;;16.10;99.90;;;;;;5075055;28;19989;-82
2021/08/22 00:13:33;;;;;;;;;;;16.10;99.90;;;;;;5075030;28;20232;-83
2021/08/22 00:16:00;;;;;;;;;;;16.10;99.90;;;;;;5075237;28;19934;-84
2021/08/22 00:18:27;;;;;;;;;;;16.10;99.90;;;;;;5075086;28;19938;-83
2021/08/22 00:20:54;;;;;;;;;;;16.10;99.90;;;;;;5075075;28;19935;-82
2021/08/22 00:23:20;;;;;;;;;;;16.10;99.90;;;;;;5074955;28;20030;-82
2021/08/22 00:25:47;;;;;;;;;;;16.10;99.90;;;;;;5075172;28;20267;-83
2021/08/22 00:28:15;;;;;;;;;;;16.10;99.90;;;;;;5074987;28;20260;-82
2021/08/22 00:30:43;;;;;;;;;;;16.10;99.90;;;;;;5074990;28;19924;-82
2021/08/22 00:33:10;;;;;;;;;;;16.10;99.90;;;;;;5074415;28;19931;-82
2021/08/22 00:35:38;;;;;;;;;;;16.10;99.90;;;;;;5074616;28;19928;-82
2021/08/22 00:38:08;;;;;;;;;;;16.10;99.90;;;;;;5074846;28;19952;-83
2021/08/22 00:40:38;;;;;;;;;;;16.10;99.90;;;;;;5074952;28;19924;-82
2021/08/22 00:43:07;;;;;;;;;;;16.10;99.90;;;;;;5075066;28;19935;-83
2021/08/22 00:45:37;;;;;;;;;;;16.10;99.90;;;;;;5074863;28;19935;-84
2021/08/22 00:48:08;;;;;;;;;;;16.20;99.90;;;;;;5074222;28;19990;-82
2021/08/22 00:50:38;;;;;;;;;;;16.20;99.90;;;;;;5076311;28;20372;-83
2021/08/22 00:53:07;;;;;;;;;;;16.20;99.90;;;;;;5078983;28;19978;-82
2021/08/22 00:55:35;;;;;;;;;;;16.20;99.90;;;;;;5078632;28;19925;-83
2021/08/22 00:58:03;;;;;;;;;;;16.20;99.90;;;;;;5078431;28;20341;-81
2021/08/22 01:00:31;;;;;;;;;;;16.20;99.90;;;;;;5078979;28;19924;-90
2021/08/22 01:03:07;;;;;;;;;;;16.20;99.90;;;;;;5079287;28;20305;-91
2021/08/22 01:05:38;;;;;;;;;;;16.20;99.90;;;;;;5078739;28;19936;-90
2021/08/22 01:08:10;;;;;;;;;;;16.20;99.90;;;;;;5078909;28;19939;-90
2021/08/22 01:10:39;;;;;;;;;;;16.20;99.90;;;;;;5079142;28;20373;-89
2021/08/22 01:13:07;;;;;;;;;;;16.20;99.90;;;;;;5078574;28;19935;-89
2021/08/22 01:15:36;;;;;;;;;;;16.20;99.90;;;;;;5079066;28;19924;-89
2021/08/22 01:18:04;;;;;;;;;;;16.20;99.90;;;;;;5078713;28;19924;-90
2021/08/22 01:20:34;;;;;;;;;;;16.10;99.90;;;;;;5078426;28;20345;-89
2021/08/22 01:23:01;;;;;;;;;;;16.20;99.90;;;;;;5078314;28;19925;-89
2021/08/22 01:25:28;;;;;;;;;;;16.20;99.90;;;;;;5077989;28;19928;-89
2021/08/22 01:27:55;;;;;;;;;;;16.10;99.90;;;;;;5078168;28;20256;-90
2021/08/22 01:30:21;;;;;;;;;;;16.10;99.90;;;;;;5077620;28;20474;-89
2021/08/22 01:32:50;;;;;;;;;;;16.10;99.90;;;;;;5078075;28;19940;-89
2021/08/22 01:35:17;;;;;;;;;;;16.10;99.90;;;;;;5078197;28;19924;-90
2021/08/22 01:37:44;;;;;;;;;;;16.10;99.90;;;;;;5078073;28;20391;-89
2021/08/22 01:40:11;;;;;;;;;;;16.10;99.90;;;;;;5078133;28;19924;-89
2021/08/22 01:42:38;;;;;;;;;;;16.10;99.90;;;;;;5077898;28;19924;-89
2021/08/22 01:45:06;;;;;;;;;;;16.10;99.90;;;;;;5078147;28;20352;-89
2021/08/22 01:47:33;;;;;;;;;;;16.10;99.90;;;;;;5077724;28;19934;-89
2021/08/22 01:50:01;;;;;;;;;;;16.10;99.90;;;;;;5077796;28;19983;-89
2021/08/22 01:52:28;;;;;;;;;;;16.10;99.90;;;;;;5077911;28;19928;-89
2021/08/22 01:54:54;;;;;;;;;;;16.10;99.90;;;;;;5077863;28;19925;-89
2021/08/22 01:57:21;;;;;;;;;;;16.10;99.90;;;;;;5077590;28;19925;-89
2021/08/22 01:59:48;;;;;;;;;;;16.10;99.90;;;;;;5077813;28;19924;-90
2021/08/22 02:02:15;;;;;;;;;;;16.10;99.90;;;;;;5076530;28;19925;-89
2021/08/22 02:04:46;;;;;;;;;;;16.10;99.90;;;;;;5076887;28;20212;-89
2021/08/22 02:07:15;;;;;;;;;;;16.10;99.90;;;;;;5077597;28;19972;-89
2021/08/22 02:09:42;;;;;;;;;;;16.10;99.90;;;;;;5077607;28;19924;-90
2021/08/22 02:12:11;;;;;;;;;;;16.10;99.90;;;;;;5077260;28;20268;-90
2021/08/22 02:14:37;;;;;;;;;;;16.10;99.90;;;;;;5077325;28;19939;-89
2021/08/22 02:17:05;;;;;;;;;;;16.10;99.90;;;;;;5077620;28;19925;-89
2021/08/22 02:19:31;;;;;;;;;;;16.10;99.90;;;;;;5077368;28;19924;-89
2021/08/22 02:21:58;;;;;;;;;;;16.10;99.90;;;;;;5077011;28;19924;-88
2021/08/22 02:24:29;;;;;;;;;;;16.10;99.90;;;;;;5077007;28;19935;-89
2021/08/22 02:27:00;;;;;;;;;;;16.10;99.90;;;;;;5084311;28;19924;-87
2021/08/22 02:29:28;;;;;;;;;;;16.10;99.90;;;;;;5097353;28;19978;-86
2021/08/22 02:31:55;;;;;;;;;;;16.10;99.90;;;;;;5097132;28;19924;-86
2021/08/22 02:34:23;;;;;;;;;;;16.10;99.90;;;;;;5097128;28;19924;-87
2021/08/22 02:36:51;;;;;;;;;;;16.10;99.90;;;;;;5096943;28;19924;-86
2021/08/22 02:39:19;;;;;;;;;;;16.10;99.90;;;;;;5096942;28;20366;-86
2021/08/22 02:41:49;;;;;;;;;;;16.10;99.90;;;;;;5097144;28;19924;-87
2021/08/22 02:44:16;;;;;;;;;;;16.10;99.90;;;;;;5097134;28;19935;-89
2021/08/22 02:46:44;;;;;;;;;;;16.10;99.90;;;;;;5097096;28;20373;-89
2021/08/22 02:49:10;;;;;;;;;;;16.10;99.90;;;;;;5096603;28;19923;-89
2021/08/22 02:51:37;;;;;;;;;;;16.10;99.90;;;;;;5097013;28;19945;-89
2021/08/22 02:54:04;;;;;;;;;;;16.10;99.90;;;;;;5095937;28;20348;-90
2021/08/22 02:56:31;;;;;;;;;;;16.10;99.90;;;;;;5093094;28;19924;-90
2021/08/22 02:58:59;;;;;;;;;;;16.20;99.90;;;;;;5076817;28;19989;-90
2021/08/22 03:01:26;;;;;;;;;;;16.10;99.90;;;;;;5076534;28;20341;-90
2021/08/22 03:03:53;;;;;;;;;;;16.10;99.90;;;;;;5076507;28;19925;-87
2021/08/22 03:06:20;;;;;;;;;;;16.10;99.90;;;;;;5076133;28;19925;-81
2021/08/22 03:08:48;;;;;;;;;;;16.10;99.90;;;;;;5076221;28;19925;-81
2021/08/22 03:11:16;;;;;;;;;;;16.10;99.90;;;;;;5076188;28;19924;-80
2021/08/22 03:13:44;;;;;;;;;;;16.20;99.90;;;;;;5075883;28;19924;-80
2021/08/22 03:16:14;;;;;;;;;;;16.20;99.90;;;;;;5076060;28;19931;-81
2021/08/22 03:18:42;;;;;;;;;;;16.10;99.90;;;;;;5076005;28;20257;-81
2021/08/22 03:21:10;;;;;;;;;;;16.10;99.90;;;;;;5075675;28;19928;-81
2021/08/22 03:23:38;;;;;;;;;;;16.10;99.90;;;;;;5075757;28;19925;-80
2021/08/22 03:26:06;;;;;;;;;;;16.10;99.90;;;;;;5075965;28;19924;-81
2021/08/22 03:28:34;;;;;;;;;;;16.10;99.90;;;;;;5075803;28;19931;-81
2021/08/22 03:31:01;;;;;;;;;;;16.10;99.90;;;;;;5075667;28;20336;-80
2021/08/22 03:33:38;;;;;;;;;;;16.10;99.90;;;;;;5075635;28;19928;-80
2021/08/22 03:36:05;;;;;;;;;;;16.10;99.90;;;;;;5075638;28;20336;-80
2021/08/22 03:38:33;;;;;;;;;;;16.10;99.90;;;;;;5075766;28;19936;-81
2021/08/22 03:41:01;;;;;;;;;;;16.10;99.90;;;;;;5075464;28;20348;-81
2021/08/22 03:43:29;;;;;;;;;;;16.10;99.90;;;;;;5075187;28;19944;-80
2021/08/22 03:46:03;;;;;;;;;;;16.10;99.90;;;;;;5075372;28;19932;-80
2021/08/22 03:48:32;;;;;;;;;;;16.10;99.90;;;;;;5075087;28;19935;-80
2021/08/22 03:51:01;;;;;;;;;;;16.10;99.90;;;;;;5075242;28;20359;-81
2021/08/22 03:53:31;;;;;;;;;;;16.10;99.90;;;;;;5075497;28;19947;-80
2021/08/22 03:55:59;;;;;;;;;;;16.10;99.90;;;;;;5075407;28;20019;-81
2021/08/22 03:58:27;;;;;;;;;;;16.10;99.90;;;;;;5075392;28;19935;-80
2021/08/22 04:00:55;;;;;;;;;;;16.10;99.90;;;;;;5075271;28;19924;-79
2021/08/22 04:03:23;;;;;;;;;;;16.00;99.90;;;;;;5075250;28;19924;-80
2021/08/22 04:05:53;;;;;;;;;;;16.10;99.90;;;;;;5075412;28;19950;-79
2021/08/22 04:08:24;;;;;;;;;;;16.10;99.90;;;;;;5075172;28;20267;-80
2021/08/22 04:10:52;;;;;;;;;;;16.10;99.90;;;;;;5075128;28;19936;-80
2021/08/22 04:13:20;;;;;;;;;;;16.10;99.90;;;;;;5075089;28;20272;-81
2021/08/22 04:15:49;;;;;;;;;;;16.10;99.90;;;;;;5075237;28;19928;-80
2021/08/22 04:18:17;;;;;;;;;;;16.10;99.90;;;;;;5074974;28;19924;-79
2021/08/22 04:20:48;;;;;;;;;;;16.10;99.90;;;;;;5075110;28;19947;-81
2021/08/22 04:23:17;;;;;;;;;;;16.10;99.90;;;;;;5075235;28;19935;-80
2021/08/22 04:25:46;;;;;;;;;;;16.00;99.90;;;;;;5074258;28;19924;-80
2021/08/22 04:28:16;;;;;;;;;;;16.00;99.90;;;;;;5075005;28;19933;-81
2021/08/22 04:30:44;;;;;;;;;;;16.00;99.90;;;;;;5074794;28;19925;-80
2021/08/22 04:33:13;;;;;;;;;;;16.00;99.90;;;;;;5075084;28;19924;-80
2021/08/22 04:35:41;;;;;;;;;;;16.00;99.90;;;;;;5075034;28;19924;-80
2021/08/22 04:38:09;;;;;;;;;;;15.90;99.90;;;;;;5074874;28;19935;-80
2021/08/22 04:40:39;;;;;;;;;;;16.00;99.90;;;;;;5074876;28;19947;-81
2021/08/22 04:43:07;;;;;;;;;;;16.00;99.90;;;;;;5074821;28;19925;-81
2021/08/22 04:45:35;;;;;;;;;;;16.00;99.90;;;;;;5074941;28;19931;-80
2021/08/22 04:48:03;;;;;;;;;;;16.00;99.90;;;;;;5074441;28;19924;-80
2021/08/22 04:50:31;;;;;;;;;;;16.00;99.90;;;;;;5074925;28;19924;-80
2021/08/22 04:52:59;;;;;;;;;;;16.00;99.90;;;;;;5075078;28;19924;-80
2021/08/22 04:55:26;;;;;;;;;;;16.00;99.90;;;;;;5074797;28;19925;-87
2021/08/22 04:57:56;;;;;;;;;;;16.00;99.90;;;;;;5074742;28;19934;-87
2021/08/22 05:00:24;;;;;;;;;;;16.00;99.90;;;;;;5074775;28;19925;-87
2021/08/22 05:02:52;;;;;;;;;;;16.00;99.90;;;;;;5074531;28;19924;-87
2021/08/22 05:05:21;;;;;;;;;;;16.00;99.90;;;;;;5074733;28;20352;-87
2021/08/22 05:07:51;;;;;;;;;;;16.00;99.90;;;;;;5074551;28;20371;-87
2021/08/22 05:10:19;;;;;;;;;;;16.00;99.90;;;;;;5073681;28;20010;-87
2021/08/22 05:12:55;;;;;;;;;;;16.00;99.90;;;;;;5074881;28;20015;-86
2021/08/22 05:15:36;;;;;;;;;;;16.00;99.90;;;;;;5074579;28;20268;-87
2021/08/22 05:18:04;;;;;;;;;;;16.00;99.90;;;;;;5072741;28;19924;-86
2021/08/22 05:20:32;;;;;;;;;;;16.00;99.90;;;;;;5074376;28;19924;-87
2021/08/22 05:23:00;;;;;;;;;;;16.00;99.90;;;;;;5066416;28;19939;-86
2021/08/22 05:25:37;;;;;;;;;;;16.00;99.90;;;;;;5074228;28;19936;-87
2021/08/22 05:28:05;;;;;;;;;;;16.00;99.90;;;;;;5074459;28;20233;-87
2021/08/22 05:30:35;;;;;;;;;;;16.00;99.90;;;;;;5074280;28;19935;-87
2021/08/22 05:33:04;;;;;;;;;;;16.00;99.90;;;;;;5074376;28;19924;-87
2021/08/22 05:35:32;;;;;;;;;;;16.00;99.90;;;;;;5074310;28;19925;-87
2021/08/22 05:38:00;;;;;;;;;;;16.00;99.90;;;;;;5076371;28;19928;-87
2021/08/22 05:40:27;;;;;;;;;;;16.00;99.90;;;;;;5077986;28;19924;-87
2021/08/22 05:42:54;;;;;;;;;;;16.00;99.90;;;;;;5077562;28;19934;-87
2021/08/22 05:45:21;;;;;;;;;;;16.00;99.90;;;;;;5076813;28;19935;-87
2021/08/22 05:47:49;;;;;;;;;;;16.10;99.90;;;;;;5077462;28;19935;-87
2021/08/22 05:50:16;;;;;;;;;;;16.00;99.90;;;;;;5077836;28;19924;-87
2021/08/22 05:52:43;;;;;;;;;;;16.10;99.90;;;;;;5077668;28;20363;-87
2021/08/22 05:55:10;;;;;;;;;;;16.10;99.90;;;;;;5077575;28;19924;-87
2021/08/22 05:57:37;;;;;;;;;;;16.10;99.90;;;;;;5077564;28;19924;-87
2021/08/22 06:00:04;;;;;;;;;;;16.10;99.90;;;;;;5077454;28;19932;-87
2021/08/22 06:02:31;;;;;;;;;;;16.10;99.90;;;;;;5077283;28;19924;-87
2021/08/22 06:04:59;;;;;;;;;;;16.10;99.90;;;;;;5077676;28;19924;-87
2021/08/22 06:07:26;;;;;;;;;;;16.10;99.90;;;;;;5077410;28;19925;-87
2021/08/22 06:09:53;;;;;;;;;;;16.10;99.90;;;;;;5077320;28;19924;-87
2021/08/22 06:12:20;;;;;;;;;;;16.10;99.90;;;;;;5077156;28;19952;-87
2021/08/22 06:14:46;;;;;;;;;;;16.10;99.90;;;;;;5077195;28;19946;-87
2021/08/22 06:17:13;;;;;;;;;;;16.20;99.90;;;;;;5077126;28;19924;-87
2021/08/22 06:19:40;;;;;;;;;;;16.10;99.90;;;;;;5077187;28;19924;-87
2021/08/22 06:22:08;;;;;;;;;;;16.20;99.90;;;;;;5077144;28;19931;-87
2021/08/22 06:24:35;;;;;;;;;;;16.10;99.90;;;;;;5077066;28;19924;-87
2021/08/22 06:27:02;;;;;;;;;;;16.10;99.90;;;;;;5076972;28;19939;-87
2021/08/22 06:29:29;;;;;;;;;;;16.10;99.90;;;;;;5076980;28;20337;-87
2021/08/22 06:31:56;;;;;;;;;;;16.10;99.90;;;;;;5077005;28;19924;-88
2021/08/22 06:34:23;;;;;;;;;;;16.10;99.90;;;;;;5077018;28;19932;-87
2021/08/22 06:36:49;;;;;;;;;;;16.10;99.90;;;;;;5076986;28;20378;-87
2021/08/22 06:39:18;;;;;;;;;;;16.00;99.90;;;;;;5076768;28;19935;-87
2021/08/22 06:41:44;;;;;;;;;;;16.10;99.90;;;;;;5076653;28;19924;-87
2021/08/22 06:44:13;;;;;;;;;;;16.10;99.90;;;;;;5076884;28;19924;-87
2021/08/22 06:46:40;;;;;;;;;;;16.10;99.90;;;;;;5076582;28;20026;-87
2021/08/22 06:49:07;;;;;;;;;;;16.10;99.90;;;;;;5075958;28;20317;-87
2021/08/22 06:51:34;;;;;;;;;;;16.10;99.90;;;;;;5076476;28;19994;-87
2021/08/22 06:54:01;;;;;;;;;;;16.10;99.90;;;;;;5076550;28;20272;-87
2021/08/22 06:56:29;;;;;;;;;;;16.10;99.90;;;;;;5076377;28;19924;-87
2021/08/22 06:58:56;;;;;;;;;;;16.20;99.90;;;;;;5076357;28;19924;-87
2021/08/22 07:01:23;;;;;;;;;;;16.20;99.90;;;;;;5076447;28;19924;-87
2021/08/22 07:03:49;;;;;;;;;;;16.20;99.90;;;;;;5076291;28;19929;-87
2021/08/22 07:06:18;;;;;;;;;;;16.20;99.90;;;;;;5076172;28;20348;-87
2021/08/22 07:08:45;;;;;;;;;;;16.20;99.90;;;;;;5076491;28;19924;-85
2021/08/22 07:11:12;;;;;;;;;;;16.10;99.90;;;;;;5076247;28;19970;-87
2021/08/22 07:13:40;;;;;;;;;;;16.10;99.90;;;;;;5075993;28;19924;-87
2021/08/22 07:16:07;;;;;;;;;;;16.10;99.90;;;;;;5076305;28;19934;-87
2021/08/22 07:18:34;;;;;;;;;;;16.10;99.90;;;;;;5075995;28;19967;-87
2021/08/22 07:21:00;;;;;;;;;;;16.10;99.90;;;;;;5075957;28;19928;-87
2021/08/22 07:23:27;;;;;;;;;;;16.10;99.90;;;;;;5075670;28;19924;-87
2021/08/22 07:25:54;;;;;;;;;;;16.10;99.90;;;;;;5075900;28;20226;-87
2021/08/22 07:28:21;;;;;;;;;;;16.10;99.90;;;;;;5075791;28;19924;-87
2021/08/22 07:30:49;;;;;;;;;;;16.10;99.90;;;;;;5075679;28;19939;-87
2021/08/22 07:33:16;;;;;;;;;;;16.10;99.90;;;;;;5075908;28;19924;-87
2021/08/22 07:35:43;;;;;;;;;;;16.10;99.90;;;;;;5075690;28;20345;-87
2021/08/22 07:38:09;;;;;;;;;;;16.10;99.90;;;;;;5075573;28;19928;-87
2021/08/22 07:40:37;;;;;;;;;;;16.10;99.90;;;;;;5075847;28;19924;-87
2021/08/22 07:43:04;;;;;;;;;;;16.10;99.90;;;;;;5075555;28;19924;-87
2021/08/22 07:45:31;;;;;;;;;;;16.20;99.90;;;;;;5075678;28;20276;-87
2021/08/22 07:47:59;;;;;;;;;;;16.20;99.90;;;;;;5075359;28;19929;-87
2021/08/22 07:50:26;;;;;;;;;;;16.20;99.90;;;;;;5075465;28;19936;-87
2021/08/22 07:52:52;;;;;;;;;;;16.30;99.90;;;;;;5075381;28;19925;-87
2021/08/22 07:55:19;;;;;;;;;;;16.30;99.90;;;;;;5075542;28;19925;-87
2021/08/22 07:57:46;;;;;;;;;;;16.30;99.90;;;;;;5075581;28;19925;-87
2021/08/22 08:00:15;;;;;;;;;;;16.30;99.90;;;;;;5074637;28;19989;-87
2021/08/22 08:02:42;;;;;;;;;;;16.40;99.90;;;;;;5075240;28;20303;-87
2021/08/22 08:05:10;;;;;;;;;;;16.40;99.90;;;;;;5075267;28;20033;-87
2021/08/22 08:07:37;;;;;;;;;;;16.40;99.90;;;;;;5075140;28;19935;-87
2021/08/22 08:10:04;;;;;;;;;;;16.50;99.90;;;;;;5075327;28;19925;-87
2021/08/22 08:12:31;;;;;;;;;;;16.50;99.90;;;;;;5075403;28;19936;-87
2021/08/22 08:14:58;;;;;;;;;;;16.50;99.90;;;;;;5075247;28;19925;-86
2021/08/22 08:17:25;;;;;;;;;;;16.60;99.90;;;;;;5075207;28;19925;-86
2021/08/22 08:19:52;;;;;;;;;;;16.60;99.90;;;;;;5074990;28;19924;-86
2021/08/22 08:22:20;;;;;;;;;;;16.60;99.90;;;;;;5074871;28;19940;-86
2021/08/22 08:24:47;;;;;;;;;;;16.70;99.90;;;;;;5075142;28;19938;-86
2021/08/22 08:27:14;;;;;;;;;;;16.80;99.90;;;;;;5075112;28;19935;-86
2021/08/22 08:29:40;;;;;;;;;;;16.80;99.90;;;;;;5075109;28;19929;-86
2021/08/22 08:32:08;;;;;;;;;;;16.80;99.90;;;;;;5074885;28;20356;-86
2021/08/22 08:34:34;;;;;;;;;;;16.80;99.90;;;;;;5074824;28;19925;-86
2021/08/22 08:37:01;;;;;;;;;;;16.80;99.90;;;;;;5075098;28;19935;-86
2021/08/22 08:39:30;;;;;;;;;;;16.80;99.90;;;;;;5074786;28;20379;-86
2021/08/22 08:42:11;;;;;;;;;;;16.80;99.90;;;;;;5074839;28;19924;-86
2021/08/22 08:44:38;;;;;;;;;;;16.80;99.90;;;;;;5074898;28;19924;-86
2021/08/22 08:47:05;;;;;;;;;;;16.80;99.90;;;;;;5074691;28;20284;-86
2021/08/22 08:49:32;;;;;;;;;;;16.80;99.90;;;;;;5074596;28;20324;-86
2021/08/22 08:51:59;;;;;;;;;;;16.80;99.90;;;;;;5074821;28;19924;-86
2021/08/22 08:54:27;;;;;;;;;;;16.80;99.90;;;;;;5074723;28;19935;-85
2021/08/22 08:56:55;;;;;;;;;;;16.90;99.90;;;;;;5074752;28;20005;-86
2021/08/22 08:59:22;;;;;;;;;;;16.90;99.90;;;;;;5074510;28;19925;-86
2021/08/22 09:01:52;;;;;;;;;;;17.00;99.90;;;;;;5074555;28;19924;-86
2021/08/22 09:04:25;;;;;;;;;;;17.10;99.90;;;;;;5074751;28;19950;-86
2021/08/22 09:07:22;;;;;;;;;;;17.20;99.90;;;;;;5074679;28;19925;-86
2021/08/22 09:10:07;;;;;;;;;;;17.30;99.90;;;;;;5074707;28;19924;-86
2021/08/22 09:12:48;;;;;;;;;;;17.40;99.90;;;;;;5077941;28;19935;-86
2021/08/22 09:15:36;;;;;;;;;;;17.50;99.90;;;;;;5077301;28;19924;-86
2021/08/22 09:18:22;;;;;;;;;;;17.50;99.90;;;;;;5069363;28;20298;-86
2021/08/22 09:21:16;;;;;;;;;;;17.50;99.90;;;;;;5078483;28;19929;-86
2021/08/22 09:24:03;;;;;;;;;;;17.60;99.90;;;;;;5078435;28;19935;-86
2021/08/22 09:26:48;;;;;;;;;;;17.70;99.90;;;;;;5078138;28;19947;-86
2021/08/22 09:29:33;;;;;;;;;;;17.80;99.90;;;;;;5078358;28;19935;-85
2021/08/22 09:32:27;;;;;;;;;;;18.00;99.90;;;;;;5078037;28;19930;-85
2021/08/22 09:35:14;;;;;;;;;;;18.20;99.90;;;;;;5078156;28;19925;-85
2021/08/22 09:38:02;;;;;;;;;;;18.40;99.90;;;;;;5077934;28;19932;-86
2021/08/22 09:40:47;;;;;;;;;;;18.50;99.90;;;;;;5077979;28;19924;-86
2021/08/22 09:43:47;;;;;;;;;;;18.50;99.90;;;;;;5077808;28;19935;-86
2021/08/22 09:46:32;;;;;;;;;;;18.40;99.90;;;;;;5056173;28;20360;-86
2021/08/22 09:49:30;;;;;;;;;;;18.30;99.90;;;;;;5056012;28;19925;-87
2021/08/22 09:52:15;;;;;;;;;;;18.10;99.90;;;;;;5056032;28;19936;-86
2021/08/22 09:54:57;;;;;;;;;;;18.20;99.90;;;;;;5055935;28;19931;-86
2021/08/22 09:57:50;;;;;;;;;;;18.20;99.90;;;;;;5024031;28;20360;-86
2021/08/22 10:00:40;;;;;;;;;;;18.20;99.90;;;;;;5055937;28;20379;-86
2021/08/22 10:03:25;;;;;;;;;;;18.50;99.90;;;;;;5055757;28;19940;-86
2021/08/22 10:06:10;;;;;;;;;;;18.70;99.90;;;;;;5055941;28;20280;-86
2021/08/22 10:08:39;;;;;;;;;;;18.80;99.90;;;;;;5055403;28;19924;-86
2021/08/22 10:11:07;;;;;;;;;;;18.90;99.90;;;;;;5055685;28;19975;-86
2021/08/22 10:13:36;;;;;;;;;;;18.90;99.90;;;;;;5055735;28;19959;-86
2021/08/22 10:16:02;;;;;;;;;;;18.80;99.90;;;;;;5056485;28;19929;-86
2021/08/22 10:18:29;;;;;;;;;;;18.80;99.90;;;;;;5077189;28;20355;-86
2021/08/22 10:21:00;;;;;;;;;;;18.80;99.90;;;;;;5077389;28;20268;-86
2021/08/22 10:23:57;;;;;;;;;;;18.80;99.90;;;;;;5076019;28;19986;-86
2021/08/22 10:26:43;;;;;;;;;;;18.90;99.90;;;;;;5055182;28;19964;-86
2021/08/22 10:29:12;;;;;;;;;;;18.90;99.90;;;;;;5055426;28;19925;-86
2021/08/22 10:32:01;;;;;;;;;;;18.90;99.90;;;;;;5055384;28;20360;-86
2021/08/22 10:34:29;;;;;;;;;;;18.80;99.90;;;;;;5055250;28;19925;-86
2021/08/22 10:36:57;;;;;;;;;;;18.70;99.90;;;;;;5055174;28;19924;-86
2021/08/22 10:39:30;;;;;;;;;;;18.60;99.90;;;;;;5054900;28;19932;-87
2021/08/22 10:41:58;;;;;;;;;;;18.50;99.90;;;;;;5054891;28;20345;-87
2021/08/22 10:44:42;;;;;;;;;;;18.30;99.90;;;;;;5055247;28;20395;-87
2021/08/22 10:47:10;;;;;;;;;;;18.30;99.90;;;;;;5054941;28;19950;-87
2021/08/22 10:50:00;;;;;;;;;;;18.30;99.90;;;;;;5054726;28;19936;-86
2021/08/22 10:52:29;;;;;;;;;;;18.40;99.90;;;;;;5054965;28;19966;-86
2021/08/22 10:55:20;;;;;;;;;;;18.50;99.90;;;;;;5055011;28;19924;-87
2021/08/22 10:57:50;;;;;;;;;;;18.50;99.90;;;;;;5051373;28;19980;-86
2021/08/22 11:00:21;;;;;;;;;;;18.60;99.90;;;;;;5054724;28;19936;-86
2021/08/22 11:02:49;;;;;;;;;;;18.50;99.90;;;;;;5056094;28;20246;-87
2021/08/22 11:05:16;;;;;;;;;;;18.60;99.90;;;;;;5056325;28;19931;-87
2021/08/22 11:07:43;;;;;;;;;;;18.60;99.90;;;;;;5056331;28;19943;-87
2021/08/22 11:10:13;;;;;;;;;;;18.60;99.90;;;;;;5056296;28;19925;-87
2021/08/22 11:12:40;;;;;;;;;;;18.60;99.90;;;;;;5056193;28;20325;-87
2021/08/22 11:15:07;;;;;;;;;;;18.60;99.90;;;;;;5055783;28;19925;-87
2021/08/22 11:17:36;;;;;;;;;;;18.70;99.90;;;;;;5056246;28;19924;-87
2021/08/22 11:20:09;;;;;;;;;;;18.70;99.90;;;;;;5056277;28;19964;-87
2021/08/22 11:22:36;;;;;;;;;;;18.70;99.90;;;;;;5056035;28;19947;-87
2021/08/22 11:25:03;;;;;;;;;;;18.80;99.90;;;;;;5055989;28;19936;-87
2021/08/22 11:27:30;;;;;;;;;;;18.80;99.90;;;;;;5056020;28;19924;-87
2021/08/22 11:29:57;;;;;;;;;;;19.00;99.90;;;;;;5055993;28;19946;-87
2021/08/22 11:32:24;;;;;;;;;;;19.00;99.90;;;;;;5055860;28;19924;-87
2021/08/22 11:34:53;;;;;;;;;;;19.10;99.90;;;;;;5055670;28;19935;-87
2021/08/22 11:37:20;;;;;;;;;;;19.10;99.90;;;;;;5056046;28;19924;-86
2021/08/22 11:39:47;;;;;;;;;;;19.10;99.90;;;;;;5055633;28;19925;-86
2021/08/22 11:42:18;;;;;;;;;;;19.10;99.90;;;;;;5055889;28;19924;-87
2021/08/22 11:44:44;;;;;;;;;;;19.10;99.90;;;;;;5055533;28;20295;-87
2021/08/22 11:47:11;;;;;;;;;;;19.20;99.90;;;;;;5055556;28;19931;-87
2021/08/22 11:49:38;;;;;;;;;;;19.30;99.90;;;;;;5074899;28;19935;-86
2021/08/22 11:52:07;;;;;;;;;;;19.30;99.90;;;;;;5075434;28;20353;-86
2021/08/22 11:54:34;;;;;;;;;;;19.30;99.90;;;;;;5075536;28;19947;-87
2021/08/22 11:57:16;;;;;;;;;;;19.40;99.90;;;;;;5075456;28;19951;-87
2021/08/22 11:59:43;;;;;;;;;;;19.30;99.90;;;;;;5075333;28;19935;-87
2021/08/22 12:02:13;;;;;;;;;;;19.30;99.90;;;;;;5075338;28;20238;-86
2021/08/22 12:04:42;;;;;;;;;;;19.30;99.90;;;;;;5075094;28;19925;-87
2021/08/22 12:07:11;;;;;;;;;;;19.20;99.90;;;;;;5064541;28;20280;-86
2021/08/22 12:09:52;;;;;;;;;;;19.10;99.90;;;;;;5065877;28;19925;-87
2021/08/22 12:12:19;;;;;;;;;;;19.00;99.90;;;;;;5075272;28;19928;-87
2021/08/22 12:14:47;;;;;;;;;;;18.90;99.90;;;;;;5075274;28;19925;-87
2021/08/22 12:17:22;;;;;;;;;;;18.90;99.90;;;;;;5075342;28;20283;-87
2021/08/22 12:19:48;;;;;;;;;;;18.90;99.90;;;;;;5075323;28;19998;-87
2021/08/22 12:22:27;;;;;;;;;;;19.00;99.90;;;;;;5075305;28;19934;-86
2021/08/22 12:24:58;;;;;;;;;;;19.10;99.90;;;;;;5075081;28;20359;-87
2021/08/22 12:27:28;;;;;;;;;;;19.20;99.90;;;;;;5075296;28;19924;-87
2021/08/22 12:30:10;;;;;;;;;;;19.30;99.90;;;;;;5075082;28;19924;-87
2021/08/22 12:32:37;;;;;;;;;;;19.40;99.90;;;;;;5075099;28;19951;-87
2021/08/22 12:35:08;;;;;;;;;;;19.40;99.90;;;;;;5074912;28;19938;-86
2021/08/22 12:37:45;;;;;;;;;;;19.40;99.90;;;;;;5074901;28;20007;-87
2021/08/22 12:40:13;;;;;;;;;;;19.40;99.90;;;;;;5074908;28;19972;-87
2021/08/22 12:42:50;;;;;;;;;;;19.40;99.90;;;;;;5073689;28;20368;-86
2021/08/22 12:45:19;;;;;;;;;;;19.40;99.90;;;;;;5074750;28;20256;-86
2021/08/22 12:47:47;;;;;;;;;;;19.50;99.90;;;;;;5078410;28;19925;-86
2021/08/22 12:50:15;;;;;;;;;;;19.60;99.90;;;;;;5079178;28;19928;-86
2021/08/22 12:52:45;;;;;;;;;;;19.70;99.90;;;;;;5078980;28;19931;-86
2021/08/22 12:55:15;;;;;;;;;;;19.80;99.90;;;;;;5078688;28;19924;-86
2021/08/22 12:57:43;;;;;;;;;;;19.80;99.90;;;;;;5078748;28;20261;-86
2021/08/22 13:00:11;;;;;;;;;;;19.90;99.90;;;;;;5077967;28;19934;-86
2021/08/22 13:02:42;;;;;;;;;;;19.90;99.90;;;;;;5078866;28;19925;-86
2021/08/22 13:05:10;;;;;;;;;;;20.00;99.90;;;;;;5078416;28;19925;-86
2021/08/22 13:07:39;;;;;;;;;;;20.00;99.90;;;;;;5078550;28;20444;-86
2021/08/22 13:10:11;;;;;;;;;;;20.00;99.90;;;;;;5078386;28;19925;-86
2021/08/22 13:12:38;;;;;;;;;;;19.90;99.90;;;;;;5078460;28;19976;-86
2021/08/22 13:15:09;;;;;;;;;;;19.80;99.90;;;;;;5078341;28;19924;-85
2021/08/22 13:17:38;;;;;;;;;;;19.90;99.90;;;;;;5078313;28;19924;-86
2021/08/22 13:20:08;;;;;;;;;;;20.00;99.90;;;;;;5078355;28;19928;-86
2021/08/22 13:22:36;;;;;;;;;;;20.00;99.90;;;;;;5075783;28;20310;-86
2021/08/22 13:25:04;;;;;;;;;;;19.90;99.90;;;;;;5078170;28;19924;-86
2021/08/22 13:27:48;;;;;;;;;;;19.80;99.90;;;;;;5078206;28;19931;-86
2021/08/22 13:30:16;;;;;;;;;;;19.70;99.90;;;;;;5078233;28;20254;-86
2021/08/22 13:32:45;;;;;;;;;;;19.60;99.90;;;;;;5078167;28;19924;-86
2021/08/22 13:35:13;;;;;;;;;;;19.50;99.90;;;;;;5078042;28;20379;-86
2021/08/22 13:37:41;;;;;;;;;;;19.50;99.90;;;;;;5077848;28;19935;-86
2021/08/22 13:40:09;;;;;;;;;;;19.50;99.90;;;;;;5077999;28;19925;-86
2021/08/22 13:42:39;;;;;;;;;;;19.50;99.90;;;;;;5077535;28;20370;-86
2021/08/22 13:45:08;;;;;;;;;;;19.60;99.90;;;;;;5077785;28;19931;-86
2021/08/22 13:47:38;;;;;;;;;;;19.60;99.90;;;;;;5077723;28;19982;-86
2021/08/22 13:50:08;;;;;;;;;;;19.60;99.90;;;;;;5077830;28;19935;-85
2021/08/22 13:52:36;;;;;;;;;;;19.60;99.90;;;;;;5077713;28;19950;-85
2021/08/22 13:55:03;;;;;;;;;;;19.60;99.90;;;;;;5077723;28;20357;-81
2021/08/22 13:57:31;;;;;;;;;;;19.60;99.90;;;;;;5076697;28;20352;-84
2021/08/22 14:00:00;;;;;;;;;;;19.60;99.90;;;;;;5077928;28;20348;-86
2021/08/22 14:02:29;;;;;;;;;;;19.70;99.90;;;;;;5077781;28;19935;-87
2021/08/22 14:04:56;;;;;;;;;;;19.80;99.90;;;;;;5077581;28;20015;-78
2021/08/22 14:07:23;;;;;;;;;;;19.90;99.90;;;;;;5077345;28;19931;-81
2021/08/22 14:09:50;;;;;;;;;;;19.90;99.90;;;;;;5077197;28;19925;-81
2021/08/22 14:12:18;;;;;;;;;;;19.80;99.90;;;;;;5077284;28;20018;-80
2021/08/22 14:14:45;;;;;;;;;;;19.70;99.90;;;;;;5077382;28;19929;-79
2021/08/22 14:17:15;;;;;;;;;;;19.50;99.90;;;;;;5077381;28;19925;-81
2021/08/22 14:19:45;;;;;;;;;;;19.40;99.90;;;;;;5077168;28;19924;-81
2021/08/22 14:22:14;;;;;;;;;;;19.30;99.90;;;;;;5077363;28;19925;-80
2021/08/22 14:24:42;;;;;;;;;;;19.40;99.90;;;;;;5077293;28;19924;-80
2021/08/22 14:27:10;;;;;;;;;;;19.50;99.90;;;;;;5077059;28;20360;-79
2021/08/22 14:29:37;;;;;;;;;;;19.70;99.90;;;;;;5077076;28;19924;-79
2021/08/22 14:32:06;;;;;;;;;;;19.80;99.90;;;;;;5076895;28;20364;-84